Terminal Aerodrome Forecast
Issued by NWS Omaha/Valley, NE

Home | Current Version | Previous Version | Text Only | Print | Product List | Glossary On
Versions: 1 2 3 4 5 6 7 8 9 10 11 12 13 14 15 16 17 18 19 20 21 22 23 24 25 26 27 28 29 30 31 32 33 34
000
FTUS43 KOAX 102320
TAFOMA
TAF
KOMA 102320Z 1100/1124 14013KT P6SM OVC040
     FM110300 13010KT P6SM SCT025 BKN090
      TEMPO 1105/1108 BKN025
     FM110800 13008KT P6SM OVC020
     FM111400 24005KT P6SM OVC010
     FM111600 31012KT P6SM OVC015
     FM111900 33015KT P6SM SCT020 BKN090=

USA.gov is the U.S. government's official web portal to all federal, state and local government web resources and services.